sensor_id;sensor_type;location;lat;lon;timestamp;pressure;altitude;pressure_sealevel;temperature;humidity
66021;BME280;52789;59.980;30.346;2023-09-19T00:01:06;101660.16;;;8.17;100.00
66021;BME280;52789;59.980;30.346;2023-09-19T00:03:36;101650.16;;;8.09;100.00
66021;BME280;52789;59.980;30.346;2023-09-19T00:06:03;101641.97;;;8.01;100.00
66021;BME280;52789;59.980;30.346;2023-09-19T00:08:41;101680.03;;;8.22;100.00
66021;BME280;52789;59.980;30.346;2023-09-19T00:11:09;101614.31;;;7.83;100.00
66021;BME280;52789;59.980;30.346;2023-09-19T00:13:36;101654.16;;;8.03;100.00
66021;BME280;52789;59.980;30.346;2023-09-19T00:16:08;101652.34;;;8.04;100.00
66021;BME280;52789;59.980;30.346;2023-09-19T00:18:36;101654.41;;;8.00;100.00
66021;BME280;52789;59.980;30.346;2023-09-19T00:21:03;101655.25;;;8.01;100.00
66021;BME280;52789;59.980;30.346;2023-09-19T00:23:30;101645.59;;;8.00;100.00
66021;BME280;52789;59.980;30.346;2023-09-19T00:26:00;101659.56;;;8.13;100.00
66021;BME280;52789;59.980;30.346;2023-09-19T00:28:27;101651.75;;;8.12;100.00
66021;BME280;52789;59.980;30.346;2023-09-19T00:30:53;101664.88;;;8.13;100.00
66021;BME280;52789;59.980;30.346;2023-09-19T00:33:22;101638.63;;;7.99;100.00
66021;BME280;52789;59.980;30.346;2023-09-19T00:35:51;101659.91;;;8.08;100.00
66021;BME280;52789;59.980;30.346;2023-09-19T00:38:18;101645.84;;;7.97;100.00
66021;BME280;52789;59.980;30.346;2023-09-19T00:40:47;101641.78;;;7.93;100.00
66021;BME280;52789;59.980;30.346;2023-09-19T00:43:13;101616.59;;;7.76;100.00
66021;BME280;52789;59.980;30.346;2023-09-19T00:45:43;101650.69;;;7.92;100.00
66021;BME280;52789;59.980;30.346;2023-09-19T00:48:09;101623.47;;;7.78;100.00
66021;BME280;52789;59.980;30.346;2023-09-19T00:50:35;101635.03;;;7.77;100.00
66021;BME280;52789;59.980;30.346;2023-09-19T00:53:02;101642.53;;;7.84;100.00
66021;BME280;52789;59.980;30.346;2023-09-19T00:55:35;101585.91;;;7.51;100.00
66021;BME280;52789;59.980;30.346;2023-09-19T00:58:03;101617.34;;;7.67;100.00
66021;BME280;52789;59.980;30.346;2023-09-19T01:00:31;101641.19;;;7.89;100.00
66021;BME280;52789;59.980;30.346;2023-09-19T01:02:59;101624.09;;;7.82;100.00
66021;BME280;52789;59.980;30.346;2023-09-19T01:05:27;101616.97;;;7.71;100.00
66021;BME280;52789;59.980;30.346;2023-09-19T01:07:53;101629.72;;;7.77;100.00
66021;BME280;52789;59.980;30.346;2023-09-19T01:10:20;101626.84;;;7.69;100.00
66021;BME280;52789;59.980;30.346;2023-09-19T01:13:07;101556.44;;;7.33;100.00
66021;BME280;52789;59.980;30.346;2023-09-19T01:21:12;101542.00;;;7.26;100.00
66021;BME280;52789;59.980;30.346;2023-09-19T01:24:31;101588.94;;;7.58;100.00
66021;BME280;52789;59.980;30.346;2023-09-19T01:29:49;101579.41;;;7.55;100.00
66021;BME280;52789;59.980;30.346;2023-09-19T01:32:21;101526.09;;;7.26;100.00
66021;BME280;52789;59.980;30.346;2023-09-19T01:37:21;101541.13;;;7.37;100.00
66021;BME280;52789;59.980;30.346;2023-09-19T01:39:56;101556.03;;;7.49;100.00
66021;BME280;52789;59.980;30.346;2023-09-19T01:47:41;101545.56;;;7.47;100.00
66021;BME280;52789;59.980;30.346;2023-09-19T01:52:50;101532.34;;;7.36;100.00
66021;BME280;52789;59.980;30.346;2023-09-19T01:55:20;101519.47;;;7.32;100.00
66021;BME280;52789;59.980;30.346;2023-09-19T02:00:14;101508.59;;;7.35;100.00
66021;BME280;52789;59.980;30.346;2023-09-19T02:02:44;101506.94;;;7.34;100.00
66021;BME280;52789;59.980;30.346;2023-09-19T02:05:11;101494.44;;;7.25;100.00
66021;BME280;52789;59.980;30.346;2023-09-19T02:07:38;101507.50;;;7.37;100.00
66021;BME280;52789;59.980;30.346;2023-09-19T02:10:06;101513.16;;;7.44;100.00
66021;BME280;52789;59.980;30.346;2023-09-19T02:12:33;101482.88;;;7.26;100.00
66021;BME280;52789;59.980;30.346;2023-09-19T02:15:01;101501.59;;;7.45;100.00
66021;BME280;52789;59.980;30.346;2023-09-19T02:17:29;101501.47;;;7.46;100.00
66021;BME280;52789;59.980;30.346;2023-09-19T02:19:56;101503.38;;;7.56;100.00
66021;BME280;52789;59.980;30.346;2023-09-19T02:22:22;101502.41;;;7.57;100.00
66021;BME280;52789;59.980;30.346;2023-09-19T02:24:48;101490.13;;;7.56;100.00
66021;BME280;52789;59.980;30.346;2023-09-19T02:27:14;101471.47;;;7.46;100.00
66021;BME280;52789;59.980;30.346;2023-09-19T02:29:42;101436.59;;;7.30;100.00
66021;BME280;52789;59.980;30.346;2023-09-19T02:32:09;101468.34;;;7.52;100.00
66021;BME280;52789;59.980;30.346;2023-09-19T02:34:36;101456.53;;;7.45;100.00
66021;BME280;52789;59.980;30.346;2023-09-19T02:37:03;101433.81;;;7.31;100.00
66021;BME280;52789;59.980;30.346;2023-09-19T02:39:33;101444.31;;;7.33;100.00
66021;BME280;52789;59.980;30.346;2023-09-19T02:41:59;101449.44;;;7.45;100.00
66021;BME280;52789;59.980;30.346;2023-09-19T02:44:24;101441.13;;;7.39;100.00
66021;BME280;52789;59.980;30.346;2023-09-19T02:46:50;101437.66;;;7.38;100.00
66021;BME280;52789;59.980;30.346;2023-09-19T02:49:16;101421.03;;;7.36;100.00
66021;BME280;52789;59.980;30.346;2023-09-19T02:51:43;101403.84;;;7.31;100.00
66021;BME280;52789;59.980;30.346;2023-09-19T02:54:08;101421.63;;;7.40;100.00
66021;BME280;52789;59.980;30.346;2023-09-19T02:56:34;101397.81;;;7.29;100.00
66021;BME280;52789;59.980;30.346;2023-09-19T02:59:01;101380.13;;;7.18;100.00
66021;BME280;52789;59.980;30.346;2023-09-19T03:01:27;101413.94;;;7.37;100.00
66021;BME280;52789;59.980;30.346;2023-09-19T03:03:54;101391.69;;;7.28;100.00
66021;BME280;52789;59.980;30.346;2023-09-19T03:06:20;101370.91;;;7.12;100.00
66021;BME280;52789;59.980;30.346;2023-09-19T03:08:47;101391.75;;;7.38;100.00
66021;BME280;52789;59.980;30.346;2023-09-19T03:11:15;101355.47;;;7.18;100.00
66021;BME280;52789;59.980;30.346;2023-09-19T03:13:44;101386.06;;;7.42;100.00
66021;BME280;52789;59.980;30.346;2023-09-19T03:16:10;101398.81;;;7.49;100.00
66021;BME280;52789;59.980;30.346;2023-09-19T03:18:36;101391.34;;;7.54;100.00
66021;BME280;52789;59.980;30.346;2023-09-19T03:21:02;101368.19;;;7.56;100.00
66021;BME280;52789;59.980;30.346;2023-09-19T03:23:28;101380.75;;;7.74;100.00
66021;BME280;52789;59.980;30.346;2023-09-19T03:25:54;101380.69;;;7.86;100.00
66021;BME280;52789;59.980;30.346;2023-09-19T03:28:21;101353.50;;;7.72;100.00
66021;BME280;52789;59.980;30.346;2023-09-19T03:31:06;101331.47;;;7.72;100.00
66021;BME280;52789;59.980;30.346;2023-09-19T03:33:34;101338.97;;;7.88;100.00
66021;BME280;52789;59.980;30.346;2023-09-19T03:36:01;101354.13;;;8.06;100.00
66021;BME280;52789;59.980;30.346;2023-09-19T03:38:30;101353.03;;;8.09;100.00
66021;BME280;52789;59.980;30.346;2023-09-19T03:40:56;101331.34;;;8.04;100.00
66021;BME280;52789;59.980;30.346;2023-09-19T03:43:22;101297.78;;;7.84;100.00
66021;BME280;52789;59.980;30.346;2023-09-19T03:45:48;101259.00;;;7.62;100.00
66021;BME280;52789;59.980;30.346;2023-09-19T03:48:14;101325.53;;;8.10;100.00
66021;BME280;52789;59.980;30.346;2023-09-19T03:50:40;101306.84;;;8.12;100.00
66021;BME280;52789;59.980;30.346;2023-09-19T03:53:05;101311.34;;;8.21;100.00
66021;BME280;52789;59.980;30.346;2023-09-19T03:55:33;101299.31;;;8.17;100.00
66021;BME280;52789;59.980;30.346;2023-09-19T03:58:01;101293.06;;;8.27;100.00
66021;BME280;52789;59.980;30.346;2023-09-19T04:00:27;101288.19;;;8.32;100.00
66021;BME280;52789;59.980;30.346;2023-09-19T04:02:54;101258.00;;;8.24;100.00
66021;BME280;52789;59.980;30.346;2023-09-19T04:05:22;101279.03;;;8.46;100.00
66021;BME280;52789;59.980;30.346;2023-09-19T04:07:48;101257.53;;;8.40;100.00
66021;BME280;52789;59.980;30.346;2023-09-19T04:10:14;101271.78;;;8.58;100.00
66021;BME280;52789;59.980;30.346;2023-09-19T04:12:40;101271.50;;;8.61;100.00
66021;BME280;52789;59.980;30.346;2023-09-19T04:15:06;101249.44;;;8.51;100.00
66021;BME280;52789;59.980;30.346;2023-09-19T04:17:32;101154.88;;;8.00;100.00
66021;BME280;52789;59.980;30.346;2023-09-19T04:19:59;101253.34;;;8.66;100.00
66021;BME280;52789;59.980;30.346;2023-09-19T04:22:25;101227.91;;;8.54;100.00
66021;BME280;52789;59.980;30.346;2023-09-19T04:24:50;101251.84;;;8.73;100.00
66021;BME280;52789;59.980;30.346;2023-09-19T04:27:16;101214.25;;;8.68;100.00
66021;BME280;52789;59.980;30.346;2023-09-19T04:29:42;101224.72;;;8.79;100.00
66021;BME280;52789;59.980;30.346;2023-09-19T04:32:08;101191.03;;;8.60;100.00
66021;BME280;52789;59.980;30.346;2023-09-19T04:34:35;101221.78;;;8.82;100.00
66021;BME280;52789;59.980;30.346;2023-09-19T04:37:01;101209.19;;;8.65;100.00
66021;BME280;52789;59.980;30.346;2023-09-19T04:39:27;101188.50;;;8.59;100.00
66021;BME280;52789;59.980;30.346;2023-09-19T04:41:56;101187.41;;;8.71;100.00
66021;BME280;52789;59.980;30.346;2023-09-19T04:44:23;101199.13;;;8.88;100.00
66021;BME280;52789;59.980;30.346;2023-09-19T04:46:48;101191.59;;;8.83;100.00
66021;BME280;52789;59.980;30.346;2023-09-19T04:49:14;101192.69;;;8.90;100.00
66021;BME280;52789;59.980;30.346;2023-09-19T04:51:39;101184.56;;;9.11;100.00
66021;BME280;52789;59.980;30.346;2023-09-19T04:54:06;101187.75;;;9.24;100.00
66021;BME280;52789;59.980;30.346;2023-09-19T04:56:32;101173.75;;;9.32;100.00
66021;BME280;52789;59.980;30.346;2023-09-19T04:58:58;101193.72;;;9.46;100.00
66021;BME280;52789;59.980;30.346;2023-09-19T05:01:24;101184.34;;;9.42;100.00
66021;BME280;52789;59.980;30.346;2023-09-19T05:03:50;101194.25;;;9.49;100.00
66021;BME280;52789;59.980;30.346;2023-09-19T05:06:21;101173.16;;;9.38;100.00
66021;BME280;52789;59.980;30.346;2023-09-19T05:08:48;101174.84;;;9.39;100.00
66021;BME280;52789;59.980;30.346;2023-09-19T05:11:21;101168.66;;;9.48;100.00
66021;BME280;52789;59.980;30.346;2023-09-19T05:13:48;101139.00;;;9.43;100.00
66021;BME280;52789;59.980;30.346;2023-09-19T05:16:16;101107.59;;;9.29;100.00
66021;BME280;52789;59.980;30.346;2023-09-19T05:18:42;101033.63;;;8.87;100.00
66021;BME280;52789;59.980;30.346;2023-09-19T05:21:07;101149.19;;;9.57;100.00
66021;BME280;52789;59.980;30.346;2023-09-19T05:23:33;101118.03;;;9.40;100.00
66021;BME280;52789;59.980;30.346;2023-09-19T05:25:59;101127.94;;;9.48;100.00
66021;BME280;52789;59.980;30.346;2023-09-19T05:28:25;101130.97;;;9.53;100.00
66021;BME280;52789;59.980;30.346;2023-09-19T05:30:52;101117.59;;;9.45;100.00
66021;BME280;52789;59.980;30.346;2023-09-19T05:33:19;101119.81;;;9.49;100.00
66021;BME280;52789;59.980;30.346;2023-09-19T05:35:45;101118.34;;;9.65;100.00
66021;BME280;52789;59.980;30.346;2023-09-19T05:38:12;101088.03;;;9.57;100.00
66021;BME280;52789;59.980;30.346;2023-09-19T05:40:40;101102.69;;;9.61;100.00
66021;BME280;52789;59.980;30.346;2023-09-19T05:43:08;101065.25;;;9.45;100.00
66021;BME280;52789;59.980;30.346;2023-09-19T05:45:34;101099.88;;;9.63;100.00
66021;BME280;52789;59.980;30.346;2023-09-19T05:48:12;101110.75;;;9.70;100.00
66021;BME280;52789;59.980;30.346;2023-09-19T05:50:42;101100.72;;;9.63;100.00
66021;BME280;52789;59.980;30.346;2023-09-19T05:53:09;101071.38;;;9.55;100.00
66021;BME280;52789;59.980;30.346;2023-09-19T05:55:37;101055.63;;;9.44;100.00
66021;BME280;52789;59.980;30.346;2023-09-19T05:58:03;101033.41;;;9.36;100.00
66021;BME280;52789;59.980;30.346;2023-09-19T06:00:29;101067.28;;;9.61;100.00
66021;BME280;52789;59.980;30.346;2023-09-19T06:02:56;101080.38;;;9.72;100.00
66021;BME280;52789;59.980;30.346;2023-09-19T06:05:23;101057.88;;;9.67;100.00
66021;BME280;52789;59.980;30.346;2023-09-19T06:07:49;101077.91;;;9.88;100.00
66021;BME280;52789;59.980;30.346;2023-09-19T06:10:15;101073.25;;;9.90;100.00
66021;BME280;52789;59.980;30.346;2023-09-19T06:12:44;101053.56;;;9.83;100.00
66021;BME280;52789;59.980;30.346;2023-09-19T06:15:12;101066.50;;;9.96;100.00
66021;BME280;52789;59.980;30.346;2023-09-19T06:17:54;101058.22;;;9.99;100.00
66021;BME280;52789;59.980;30.346;2023-09-19T06:20:21;101027.50;;;9.87;100.00
66021;BME280;52789;59.980;30.346;2023-09-19T06:22:48;101042.31;;;10.07;100.00
66021;BME280;52789;59.980;30.346;2023-09-19T06:25:16;101007.91;;;9.88;100.00
66021;BME280;52789;59.980;30.346;2023-09-19T06:27:46;101028.00;;;10.08;100.00
66021;BME280;52789;59.980;30.346;2023-09-19T06:30:12;101003.94;;;9.92;100.00
66021;BME280;52789;59.980;30.346;2023-09-19T06:32:40;101035.03;;;10.27;100.00
66021;BME280;52789;59.980;30.346;2023-09-19T06:35:10;101018.16;;;10.18;100.00
66021;BME280;52789;59.980;30.346;2023-09-19T06:37:37;101039.66;;;10.43;100.00
66021;BME280;52789;59.980;30.346;2023-09-19T06:40:10;101036.22;;;10.50;100.00
66021;BME280;52789;59.980;30.346;2023-09-19T06:42:51;101031.63;;;10.61;100.00
66021;BME280;52789;59.980;30.346;2023-09-19T06:45:18;100990.44;;;10.47;100.00
66021;BME280;52789;59.980;30.346;2023-09-19T06:47:45;101007.19;;;10.65;100.00
66021;BME280;52789;59.980;30.346;2023-09-19T06:50:14;100991.44;;;10.72;100.00
66021;BME280;52789;59.980;30.346;2023-09-19T06:52:41;101018.25;;;11.04;100.00
66021;BME280;52789;59.980;30.346;2023-09-19T06:55:07;101000.13;;;11.16;100.00
66021;BME280;52789;59.980;30.346;2023-09-19T06:57:34;100981.88;;;11.37;100.00
66021;BME280;52789;59.980;30.346;2023-09-19T07:00:00;101011.34;;;11.78;100.00
66021;BME280;52789;59.980;30.346;2023-09-19T07:02:29;100984.34;;;11.97;100.00
66021;BME280;52789;59.980;30.346;2023-09-19T07:04:55;100988.84;;;12.13;100.00
66021;BME280;52789;59.980;30.346;2023-09-19T07:07:21;100961.66;;;11.93;100.00
66021;BME280;52789;59.980;30.346;2023-09-19T07:09:46;100967.00;;;11.93;100.00
66021;BME280;52789;59.980;30.346;2023-09-19T07:12:14;100972.00;;;11.88;100.00
66021;BME280;52789;59.980;30.346;2023-09-19T07:14:40;100967.66;;;11.87;100.00
66021;BME280;52789;59.980;30.346;2023-09-19T07:17:05;100961.97;;;11.82;100.00
66021;BME280;52789;59.980;30.346;2023-09-19T07:19:31;100963.66;;;11.91;100.00
66021;BME280;52789;59.980;30.346;2023-09-19T07:21:57;100954.97;;;11.97;100.00
66021;BME280;52789;59.980;30.346;2023-09-19T07:24:24;100947.81;;;11.98;100.00
66021;BME280;52789;59.980;30.346;2023-09-19T07:26:52;100972.81;;;12.13;100.00
66021;BME280;52789;59.980;30.346;2023-09-19T07:29:17;100975.00;;;12.18;100.00
66021;BME280;52789;59.980;30.346;2023-09-19T07:31:47;100898.28;;;11.87;100.00
66021;BME280;52789;59.980;30.346;2023-09-19T07:34:13;100949.94;;;12.35;100.00
66021;BME280;52789;59.980;30.346;2023-09-19T07:36:39;100957.25;;;12.57;100.00
66021;BME280;52789;59.980;30.346;2023-09-19T07:39:06;100946.19;;;12.77;100.00
66021;BME280;52789;59.980;30.346;2023-09-19T07:41:33;100952.59;;;12.98;100.00
66021;BME280;52789;59.980;30.346;2023-09-19T07:43:59;100946.34;;;13.14;100.00
66021;BME280;52789;59.980;30.346;2023-09-19T07:46:25;100936.28;;;13.24;100.00
66021;BME280;52789;59.980;30.346;2023-09-19T07:48:51;100927.88;;;13.36;100.00
66021;BME280;52789;59.980;30.346;2023-09-19T07:51:17;100932.75;;;13.32;100.00
66021;BME280;52789;59.980;30.346;2023-09-19T07:53:43;100926.78;;;13.14;100.00
66021;BME280;52789;59.980;30.346;2023-09-19T07:56:09;100914.38;;;12.90;100.00
66021;BME280;52789;59.980;30.346;2023-09-19T07:58:36;100923.34;;;12.97;100.00
66021;BME280;52789;59.980;30.346;2023-09-19T08:01:07;100916.16;;;13.06;100.00
66021;BME280;52789;59.980;30.346;2023-09-19T08:03:33;100917.09;;;13.21;100.00
66021;BME280;52789;59.980;30.346;2023-09-19T08:06:00;100907.78;;;13.40;100.00
66021;BME280;52789;59.980;30.346;2023-09-19T08:08:27;100903.13;;;13.56;100.00
66021;BME280;52789;59.980;30.346;2023-09-19T08:10:54;100895.19;;;13.71;100.00
66021;BME280;52789;59.980;30.346;2023-09-19T08:13:22;100886.34;;;13.85;100.00
66021;BME280;52789;59.980;30.346;2023-09-19T08:15:47;100870.41;;;13.92;100.00
66021;BME280;52789;59.980;30.346;2023-09-19T08:18:14;100892.34;;;14.25;100.00
66021;BME280;52789;59.980;30.346;2023-09-19T08:20:40;100876.28;;;14.25;100.00
66021;BME280;52789;59.980;30.346;2023-09-19T08:23:07;100888.47;;;14.27;100.00
66021;BME280;52789;59.980;30.346;2023-09-19T08:25:34;100868.88;;;14.27;100.00
66021;BME280;52789;59.980;30.346;2023-09-19T08:28:00;100832.84;;;14.15;100.00
66021;BME280;52789;59.980;30.346;2023-09-19T08:30:27;100872.03;;;14.45;100.00
66021;BME280;52789;59.980;30.346;2023-09-19T08:33:02;100862.28;;;14.52;100.00
66021;BME280;52789;59.980;30.346;2023-09-19T08:35:30;100844.91;;;14.48;100.00
66021;BME280;52789;59.980;30.346;2023-09-19T08:37:55;100878.50;;;14.80;99.61
66021;BME280;52789;59.980;30.346;2023-09-19T08:40:22;100862.06;;;14.69;100.00
66021;BME280;52789;59.980;30.346;2023-09-19T08:42:51;100873.72;;;14.76;100.00
66021;BME280;52789;59.980;30.346;2023-09-19T08:45:19;100851.97;;;14.71;100.00
66021;BME280;52789;59.980;30.346;2023-09-19T08:47:47;100854.94;;;14.76;100.00
66021;BME280;52789;59.980;30.346;2023-09-19T08:50:19;100852.03;;;14.92;100.00
66021;BME280;52789;59.980;30.346;2023-09-19T08:52:50;100842.75;;;15.09;100.00
66021;BME280;52789;59.980;30.346;2023-09-19T08:55:19;100830.97;;;15.32;99.48
66021;BME280;52789;59.980;30.346;2023-09-19T08:57:49;100811.69;;;15.43;98.17
66021;BME280;52789;59.980;30.346;2023-09-19T09:00:16;100827.72;;;15.79;97.88
66021;BME280;52789;59.980;30.346;2023-09-19T09:02:46;100816.56;;;16.10;96.57
66021;BME280;52789;59.980;30.346;2023-09-19T09:05:12;100796.19;;;16.22;94.52
66021;BME280;52789;59.980;30.346;2023-09-19T09:07:40;100793.75;;;16.27;93.29
66021;BME280;52789;59.980;30.346;2023-09-19T09:10:06;100776.28;;;16.10;93.55
66021;BME280;52789;59.980;30.346;2023-09-19T09:12:35;100793.38;;;16.43;93.85
66021;BME280;52789;59.980;30.346;2023-09-19T09:15:02;100777.31;;;16.50;92.60
66021;BME280;52789;59.980;30.346;2023-09-19T09:17:31;100774.06;;;16.68;92.40
66021;BME280;52789;59.980;30.346;2023-09-19T09:19:57;100725.22;;;16.64;91.86
66021;BME280;52789;59.980;30.346;2023-09-19T09:22:22;100734.81;;;16.93;91.41
66021;BME280;52789;59.980;30.346;2023-09-19T09:24:52;100755.16;;;17.16;92.09
66021;BME280;52789;59.980;30.346;2023-09-19T09:27:20;100745.63;;;17.13;92.47
66021;BME280;52789;59.980;30.346;2023-09-19T09:29:48;100728.00;;;17.04;93.64
66021;BME280;52789;59.980;30.346;2023-09-19T09:32:21;100729.44;;;16.87;94.38
66021;BME280;52789;59.980;30.346;2023-09-19T09:34:59;100736.03;;;16.71;95.16
66021;BME280;52789;59.980;30.346;2023-09-19T09:37:26;100722.50;;;16.51;96.89
66021;BME280;52789;59.980;30.346;2023-09-19T09:39:58;100725.63;;;16.55;98.63
66021;BME280;52789;59.980;30.346;2023-09-19T09:42:38;100696.59;;;16.37;99.11
66021;BME280;52789;59.980;30.346;2023-09-19T09:45:33;100714.00;;;16.48;99.61
66021;BME280;52789;59.980;30.346;2023-09-19T09:48:00;100713.00;;;16.49;99.98
66021;BME280;52789;59.980;30.346;2023-09-19T09:50:31;100694.13;;;16.42;99.88
66021;BME280;52789;59.980;30.346;2023-09-19T09:53:04;100704.94;;;16.62;100.00
66021;BME280;52789;59.980;30.346;2023-09-19T09:56:02;100702.09;;;16.70;100.00
66021;BME280;52789;59.980;30.346;2023-09-19T09:58:49;100706.28;;;16.79;100.00
66021;BME280;52789;59.980;30.346;2023-09-19T10:01:15;100688.84;;;16.75;100.00
66021;BME280;52789;59.980;30.346;2023-09-19T10:03:42;100700.47;;;16.95;100.00
66021;BME280;52789;59.980;30.346;2023-09-19T10:06:18;100673.16;;;16.98;100.00
66021;BME280;52789;59.980;30.346;2023-09-19T10:09:12;100692.63;;;17.20;100.00
66021;BME280;52789;59.980;30.346;2023-09-19T10:12:03;100691.38;;;17.23;100.00
66021;BME280;52789;59.980;30.346;2023-09-19T10:14:30;100688.06;;;17.21;100.00
66021;BME280;52789;59.980;30.346;2023-09-19T10:17:02;100656.63;;;17.08;100.00
66021;BME280;52789;59.980;30.346;2023-09-19T10:19:36;100661.56;;;17.24;100.00
66021;BME280;52789;59.980;30.346;2023-09-19T10:22:02;100654.31;;;17.38;100.00
66021;BME280;52789;59.980;30.346;2023-09-19T10:24:30;100657.00;;;17.45;100.00
66021;BME280;52789;59.980;30.346;2023-09-19T10:26:57;100636.91;;;17.41;100.00
66021;BME280;52789;59.980;30.346;2023-09-19T10:29:27;100674.78;;;17.72;100.00
66021;BME280;52789;59.980;30.346;2023-09-19T10:31:58;100655.53;;;17.69;100.00
66021;BME280;52789;59.980;30.346;2023-09-19T10:34:25;100647.81;;;17.79;100.00
66021;BME280;52789;59.980;30.346;2023-09-19T10:36:51;100652.13;;;17.93;100.00
66021;BME280;52789;59.980;30.346;2023-09-19T10:39:18;100633.88;;;17.95;100.00
66021;BME280;52789;59.980;30.346;2023-09-19T10:41:50;100637.31;;;18.09;100.00
66021;BME280;52789;59.980;30.346;2023-09-19T10:44:25;100558.78;;;17.67;99.60
66021;BME280;52789;59.980;30.346;2023-09-19T10:46:54;100627.72;;;18.26;100.00
66021;BME280;52789;59.980;30.346;2023-09-19T10:49:21;100629.31;;;18.34;99.36
66021;BME280;52789;59.980;30.346;2023-09-19T10:51:47;100608.78;;;18.33;99.34
66021;BME280;52789;59.980;30.346;2023-09-19T10:54:17;100611.59;;;18.44;99.74
66021;BME280;52789;59.980;30.346;2023-09-19T10:56:51;100607.88;;;18.45;99.44
66021;BME280;52789;59.980;30.346;2023-09-19T10:59:19;100579.03;;;18.46;100.00
66021;BME280;52789;59.980;30.346;2023-09-19T11:01:53;100617.94;;;18.63;100.00
66021;BME280;52789;59.980;30.346;2023-09-19T11:07:12;100596.78;;;18.60;100.00
66021;BME280;52789;59.980;30.346;2023-09-19T11:09:51;100594.78;;;18.49;100.00
66021;BME280;52789;59.980;30.346;2023-09-19T11:14:57;100591.69;;;18.45;100.00
66021;BME280;52789;59.980;30.346;2023-09-19T11:17:30;100583.31;;;18.60;100.00
66021;BME280;52789;59.980;30.346;2023-09-19T11:30:39;100552.06;;;19.39;98.22
66021;BME280;52789;59.980;30.346;2023-09-19T11:33:18;100570.47;;;19.67;97.29
66021;BME280;52789;59.980;30.346;2023-09-19T11:43:51;100535.31;;;19.48;97.68
66021;BME280;52789;59.980;30.346;2023-09-19T11:46:17;100533.22;;;19.50;97.35
66021;BME280;52789;59.980;30.346;2023-09-19T11:48:48;100549.13;;;19.59;97.62
66021;BME280;52789;59.980;30.346;2023-09-19T11:51:24;100530.69;;;19.56;97.31
66021;BME280;52789;59.980;30.346;2023-09-19T11:53:54;100538.88;;;19.67;96.81
66021;BME280;52789;59.980;30.346;2023-09-19T11:56:22;100498.88;;;19.39;96.92
66021;BME280;52789;59.980;30.346;2023-09-19T11:58:53;100505.34;;;19.38;97.24
66021;BME280;52789;59.980;30.346;2023-09-19T12:01:25;100529.47;;;19.52;97.00
66021;BME280;52789;59.980;30.346;2023-09-19T12:03:56;100542.38;;;19.49;97.54
66021;BME280;52789;59.980;30.346;2023-09-19T12:06:24;100545.53;;;19.46;98.00
66021;BME280;52789;59.980;30.346;2023-09-19T12:08:51;100519.25;;;19.35;97.61
66021;BME280;52789;59.980;30.346;2023-09-19T12:11:19;100543.19;;;19.50;96.68
66021;BME280;52789;59.980;30.346;2023-09-19T12:13:47;100537.44;;;19.46;96.80
66021;BME280;52789;59.980;30.346;2023-09-19T12:16:19;100516.13;;;19.38;97.63
66021;BME280;52789;59.980;30.346;2023-09-19T12:18:50;100516.97;;;19.39;97.42
66021;BME280;52789;59.980;30.346;2023-09-19T12:21:31;100512.28;;;19.46;96.73
66021;BME280;52789;59.980;30.346;2023-09-19T12:24:13;100505.16;;;19.52;97.14
66021;BME280;52789;59.980;30.346;2023-09-19T12:26:41;100503.34;;;19.64;96.88
66021;BME280;52789;59.980;30.346;2023-09-19T12:29:12;100495.19;;;19.70;95.68
66021;BME280;52789;59.980;30.346;2023-09-19T12:31:53;100507.69;;;19.95;95.58
66021;BME280;52789;59.980;30.346;2023-09-19T12:34:22;100507.63;;;20.01;94.82
66021;BME280;52789;59.980;30.346;2023-09-19T12:36:48;100506.28;;;19.92;94.46
66021;BME280;52789;59.980;30.346;2023-09-19T12:39:24;100478.41;;;19.80;95.12
66021;BME280;52789;59.980;30.346;2023-09-19T12:41:55;100487.81;;;19.89;95.37
66021;BME280;52789;59.980;30.346;2023-09-19T12:44:21;100497.75;;;19.95;95.23
66021;BME280;52789;59.980;30.346;2023-09-19T12:46:46;100495.84;;;19.96;95.44
66021;BME280;52789;59.980;30.346;2023-09-19T12:49:15;100468.31;;;19.87;93.98
66021;BME280;52789;59.980;30.346;2023-09-19T12:51:42;100474.91;;;19.91;93.50
66021;BME280;52789;59.980;30.346;2023-09-19T12:54:09;100470.31;;;19.92;93.51
66021;BME280;52789;59.980;30.346;2023-09-19T12:56:43;100483.53;;;20.00;93.25
66021;BME280;52789;59.980;30.346;2023-09-19T12:59:14;100453.25;;;19.79;93.38
66021;BME280;52789;59.980;30.346;2023-09-19T13:01:42;100467.03;;;19.90;93.82
66021;BME280;52789;59.980;30.346;2023-09-19T13:04:15;100453.97;;;19.75;94.42
66021;BME280;52789;59.980;30.346;2023-09-19T13:06:53;100419.41;;;19.47;94.91
66021;BME280;52789;59.980;30.346;2023-09-19T13:09:21;100449.78;;;19.61;95.27
66021;BME280;52789;59.980;30.346;2023-09-19T13:11:48;100438.56;;;19.45;96.58
66021;BME280;52789;59.980;30.346;2023-09-19T13:14:26;100450.63;;;19.43;96.17
66021;BME280;52789;59.980;30.346;2023-09-19T13:17:04;100424.47;;;19.25;98.70
66021;BME280;52789;59.980;30.346;2023-09-19T13:19:51;100436.59;;;19.34;98.58
66021;BME280;52789;59.980;30.346;2023-09-19T13:25:17;100420.50;;;19.28;99.86
66021;BME280;52789;59.980;30.346;2023-09-19T13:28:00;100419.31;;;19.24;100.00
66021;BME280;52789;59.980;30.346;2023-09-19T13:30:30;100386.09;;;19.05;100.00
66021;BME280;52789;59.980;30.346;2023-09-19T13:33:14;100412.63;;;19.26;100.00
66021;BME280;52789;59.980;30.346;2023-09-19T13:35:50;100400.91;;;19.32;99.85